sensor_id;sensor_type;location;lat;lon;timestamp;P1;durP1;ratioP1;P2;durP2;ratioP2
51525;SDS011;37611;51.794;21.590;2023-07-31T00:01:28;5.70;;;3.70;;
51525;SDS011;37611;51.794;21.590;2023-07-31T00:05:29;4.60;;;4.10;;
51525;SDS011;37611;51.794;21.590;2023-07-31T00:09:31;4.60;;;4.20;;
51525;SDS011;37611;51.794;21.590;2023-07-31T00:13:34;4.30;;;3.90;;
51525;SDS011;37611;51.794;21.590;2023-07-31T00:17:36;3.90;;;3.50;;
51525;SDS011;37611;51.794;21.590;2023-07-31T00:21:38;4.60;;;4.10;;
51525;SDS011;37611;51.794;21.590;2023-07-31T00:25:39;4.70;;;3.90;;
51525;SDS011;37611;51.794;21.590;2023-07-31T00:29:41;5.10;;;3.70;;
51525;SDS011;37611;51.794;21.590;2023-07-31T00:33:43;6.10;;;4.00;;
51525;SDS011;37611;51.794;21.590;2023-07-31T00:37:44;3.60;;;3.10;;
51525;SDS011;37611;51.794;21.590;2023-07-31T00:41:46;5.20;;;4.10;;
51525;SDS011;37611;51.794;21.590;2023-07-31T00:45:48;5.50;;;3.60;;
51525;SDS011;37611;51.794;21.590;2023-07-31T00:49:50;4.50;;;3.30;;
51525;SDS011;37611;51.794;21.590;2023-07-31T00:53:51;4.10;;;3.70;;
51525;SDS011;37611;51.794;21.590;2023-07-31T00:57:55;6.10;;;3.90;;
51525;SDS011;37611;51.794;21.590;2023-07-31T01:01:57;4.70;;;3.70;;
51525;SDS011;37611;51.794;21.590;2023-07-31T01:15:01;5.00;;;3.70;;
51525;SDS011;37611;51.794;21.590;2023-07-31T01:19:04;4.10;;;3.20;;
51525;SDS011;37611;51.794;21.590;2023-07-31T01:27:15;4.30;;;3.60;;
51525;SDS011;37611;51.794;21.590;2023-07-31T01:31:23;3.60;;;3.30;;
51525;SDS011;37611;51.794;21.590;2023-07-31T01:35:26;3.90;;;3.30;;
51525;SDS011;37611;51.794;21.590;2023-07-31T01:39:28;3.80;;;3.40;;
51525;SDS011;37611;51.794;21.590;2023-07-31T01:43:30;3.50;;;3.20;;
51525;SDS011;37611;51.794;21.590;2023-07-31T01:47:32;4.30;;;3.40;;
51525;SDS011;37611;51.794;21.590;2023-07-31T01:51:33;3.40;;;3.10;;
51525;SDS011;37611;51.794;21.590;2023-07-31T01:55:35;4.30;;;3.00;;
51525;SDS011;37611;51.794;21.590;2023-07-31T01:59:37;4.70;;;3.30;;
51525;SDS011;37611;51.794;21.590;2023-07-31T02:03:38;3.40;;;3.10;;
51525;SDS011;37611;51.794;21.590;2023-07-31T02:07:40;3.80;;;3.10;;
51525;SDS011;37611;51.794;21.590;2023-07-31T02:11:42;3.70;;;3.10;;
51525;SDS011;37611;51.794;21.590;2023-07-31T02:15:44;3.20;;;2.90;;
51525;SDS011;37611;51.794;21.590;2023-07-31T02:19:47;3.60;;;2.90;;
51525;SDS011;37611;51.794;21.590;2023-07-31T02:23:49;3.00;;;2.70;;
51525;SDS011;37611;51.794;21.590;2023-07-31T02:27:51;3.60;;;3.10;;
51525;SDS011;37611;51.794;21.590;2023-07-31T02:31:52;4.10;;;3.00;;
51525;SDS011;37611;51.794;21.590;2023-07-31T02:35:54;3.60;;;2.90;;
51525;SDS011;37611;51.794;21.590;2023-07-31T02:39:56;3.40;;;2.90;;
51525;SDS011;37611;51.794;21.590;2023-07-31T02:43:57;4.80;;;3.00;;
51525;SDS011;37611;51.794;21.590;2023-07-31T02:47:59;3.90;;;3.00;;
51525;SDS011;37611;51.794;21.590;2023-07-31T02:52:00;3.60;;;3.00;;
51525;SDS011;37611;51.794;21.590;2023-07-31T02:56:02;3.70;;;3.00;;
51525;SDS011;37611;51.794;21.590;2023-07-31T03:00:04;3.60;;;2.80;;
51525;SDS011;37611;51.794;21.590;2023-07-31T03:04:07;3.80;;;3.20;;
51525;SDS011;37611;51.794;21.590;2023-07-31T03:08:09;9.10;;;3.30;;
51525;SDS011;37611;51.794;21.590;2023-07-31T03:12:11;4.20;;;2.90;;
51525;SDS011;37611;51.794;21.590;2023-07-31T03:16:12;3.90;;;3.40;;
51525;SDS011;37611;51.794;21.590;2023-07-31T03:20:14;3.60;;;3.00;;
51525;SDS011;37611;51.794;21.590;2023-07-31T03:24:16;5.30;;;3.40;;
51525;SDS011;37611;51.794;21.590;2023-07-31T03:28:17;3.20;;;2.70;;
51525;SDS011;37611;51.794;21.590;2023-07-31T03:32:19;4.10;;;2.90;;
51525;SDS011;37611;51.794;21.590;2023-07-31T03:36:21;5.20;;;3.30;;
51525;SDS011;37611;51.794;21.590;2023-07-31T03:40:22;4.20;;;3.30;;
51525;SDS011;37611;51.794;21.590;2023-07-31T03:44:24;5.40;;;3.10;;
51525;SDS011;37611;51.794;21.590;2023-07-31T03:48:25;4.70;;;3.20;;
51525;SDS011;37611;51.794;21.590;2023-07-31T03:52:27;4.40;;;3.60;;
51525;SDS011;37611;51.794;21.590;2023-07-31T03:56:29;6.30;;;3.10;;
51525;SDS011;37611;51.794;21.590;2023-07-31T04:00:31;4.20;;;3.40;;
51525;SDS011;37611;51.794;21.590;2023-07-31T04:04:32;5.40;;;3.30;;
51525;SDS011;37611;51.794;21.590;2023-07-31T04:08:34;3.50;;;3.10;;
51525;SDS011;37611;51.794;21.590;2023-07-31T04:12:36;4.60;;;3.30;;
51525;SDS011;37611;51.794;21.590;2023-07-31T04:16:38;6.20;;;3.70;;
51525;SDS011;37611;51.794;21.590;2023-07-31T04:20:39;3.50;;;2.80;;
51525;SDS011;37611;51.794;21.590;2023-07-31T04:24:41;4.80;;;3.30;;
51525;SDS011;37611;51.794;21.590;2023-07-31T04:28:42;4.50;;;3.20;;
51525;SDS011;37611;51.794;21.590;2023-07-31T04:32:44;3.20;;;2.90;;
51525;SDS011;37611;51.794;21.590;2023-07-31T04:36:46;3.60;;;2.80;;
51525;SDS011;37611;51.794;21.590;2023-07-31T04:40:48;6.10;;;2.90;;
51525;SDS011;37611;51.794;21.590;2023-07-31T04:44:50;4.70;;;2.70;;
51525;SDS011;37611;51.794;21.590;2023-07-31T04:48:51;5.80;;;2.40;;
51525;SDS011;37611;51.794;21.590;2023-07-31T04:52:53;3.20;;;2.90;;
51525;SDS011;37611;51.794;21.590;2023-07-31T04:56:55;6.20;;;3.20;;
51525;SDS011;37611;51.794;21.590;2023-07-31T05:00:56;4.30;;;2.90;;
51525;SDS011;37611;51.794;21.590;2023-07-31T05:04:58;4.60;;;2.90;;
51525;SDS011;37611;51.794;21.590;2023-07-31T05:09:00;3.80;;;2.90;;
51525;SDS011;37611;51.794;21.590;2023-07-31T05:13:01;3.60;;;2.40;;
51525;SDS011;37611;51.794;21.590;2023-07-31T05:17:03;3.50;;;2.60;;
51525;SDS011;37611;51.794;21.590;2023-07-31T05:21:05;4.00;;;2.40;;
51525;SDS011;37611;51.794;21.590;2023-07-31T05:25:07;4.90;;;2.60;;
51525;SDS011;37611;51.794;21.590;2023-07-31T05:29:09;3.60;;;2.60;;
51525;SDS011;37611;51.794;21.590;2023-07-31T05:33:10;3.50;;;2.10;;
51525;SDS011;37611;51.794;21.590;2023-07-31T05:37:12;2.60;;;2.30;;
51525;SDS011;37611;51.794;21.590;2023-07-31T05:41:14;3.90;;;2.40;;
51525;SDS011;37611;51.794;21.590;2023-07-31T05:45:15;4.70;;;2.10;;
51525;SDS011;37611;51.794;21.590;2023-07-31T05:49:17;2.80;;;2.10;;
51525;SDS011;37611;51.794;21.590;2023-07-31T05:53:19;4.30;;;2.30;;
51525;SDS011;37611;51.794;21.590;2023-07-31T05:57:21;2.90;;;2.20;;
51525;SDS011;37611;51.794;21.590;2023-07-31T06:01:22;4.10;;;2.00;;
51525;SDS011;37611;51.794;21.590;2023-07-31T11:13:29;8.20;;;2.50;;
51525;SDS011;37611;51.794;21.590;2023-07-31T11:17:31;3.90;;;2.00;;
51525;SDS011;37611;51.794;21.590;2023-07-31T11:21:33;3.40;;;2.60;;
51525;SDS011;37611;51.794;21.590;2023-07-31T11:25:35;4.30;;;2.10;;
51525;SDS011;37611;51.794;21.590;2023-07-31T11:29:38;7.20;;;2.70;;
51525;SDS011;37611;51.794;21.590;2023-07-31T11:33:40;3.60;;;2.50;;
51525;SDS011;37611;51.794;21.590;2023-07-31T11:37:44;4.30;;;2.20;;
51525;SDS011;37611;51.794;21.590;2023-07-31T11:41:59;5.00;;;2.10;;
51525;SDS011;37611;51.794;21.590;2023-07-31T11:46:11;4.80;;;2.40;;
51525;SDS011;37611;51.794;21.590;2023-07-31T11:50:18;5.80;;;3.50;;
51525;SDS011;37611;51.794;21.590;2023-07-31T11:54:20;5.30;;;1.90;;
51525;SDS011;37611;51.794;21.590;2023-07-31T11:58:22;3.60;;;1.90;;
51525;SDS011;37611;51.794;21.590;2023-07-31T12:02:25;8.00;;;2.10;;
51525;SDS011;37611;51.794;21.590;2023-07-31T12:06:36;4.00;;;1.90;;
51525;SDS011;37611;51.794;21.590;2023-07-31T12:10:39;3.50;;;1.80;;
51525;SDS011;37611;51.794;21.590;2023-07-31T12:14:42;2.80;;;1.90;;
51525;SDS011;37611;51.794;21.590;2023-07-31T12:23:21;3.30;;;1.50;;
51525;SDS011;37611;51.794;21.590;2023-07-31T12:27:32;4.00;;;1.90;;
51525;SDS011;37611;51.794;21.590;2023-07-31T12:31:35;5.80;;;2.00;;
51525;SDS011;37611;51.794;21.590;2023-07-31T12:35:39;6.80;;;2.00;;
51525;SDS011;37611;51.794;21.590;2023-07-31T12:39:43;4.30;;;1.50;;
51525;SDS011;37611;51.794;21.590;2023-07-31T12:43:45;3.60;;;1.80;;
51525;SDS011;37611;51.794;21.590;2023-07-31T12:47:47;4.20;;;2.10;;
51525;SDS011;37611;51.794;21.590;2023-07-31T12:51:49;6.00;;;1.90;;
51525;SDS011;37611;51.794;21.590;2023-07-31T12:55:51;3.70;;;1.60;;
51525;SDS011;37611;51.794;21.590;2023-07-31T12:59:53;3.50;;;1.80;;
51525;SDS011;37611;51.794;21.590;2023-07-31T13:03:54;3.00;;;1.70;;
51525;SDS011;37611;51.794;21.590;2023-07-31T13:07:56;3.20;;;1.50;;
51525;SDS011;37611;51.794;21.590;2023-07-31T13:11:58;5.00;;;1.70;;
51525;SDS011;37611;51.794;21.590;2023-07-31T13:16:00;2.70;;;1.90;;
51525;SDS011;37611;51.794;21.590;2023-07-31T13:20:02;2.50;;;1.60;;
51525;SDS011;37611;51.794;21.590;2023-07-31T13:24:04;3.30;;;2.20;;
51525;SDS011;37611;51.794;21.590;2023-07-31T13:28:06;4.00;;;1.90;;
51525;SDS011;37611;51.794;21.590;2023-07-31T13:32:08;3.90;;;1.70;;
51525;SDS011;37611;51.794;21.590;2023-07-31T13:36:09;5.50;;;2.00;;
51525;SDS011;37611;51.794;21.590;2023-07-31T13:40:12;2.70;;;1.40;;
51525;SDS011;37611;51.794;21.590;2023-07-31T13:44:14;3.90;;;1.90;;
51525;SDS011;37611;51.794;21.590;2023-07-31T13:48:16;3.80;;;1.90;;
51525;SDS011;37611;51.794;21.590;2023-07-31T13:52:18;3.30;;;1.60;;
51525;SDS011;37611;51.794;21.590;2023-07-31T13:56:19;3.00;;;1.60;;
51525;SDS011;37611;51.794;21.590;2023-07-31T14:00:21;4.10;;;2.00;;
51525;SDS011;37611;51.794;21.590;2023-07-31T14:04:23;5.60;;;1.80;;
51525;SDS011;37611;51.794;21.590;2023-07-31T14:08:25;3.10;;;1.80;;
51525;SDS011;37611;51.794;21.590;2023-07-31T14:12:27;3.20;;;1.60;;
51525;SDS011;37611;51.794;21.590;2023-07-31T14:16:29;3.80;;;1.50;;
51525;SDS011;37611;51.794;21.590;2023-07-31T14:20:31;3.10;;;1.70;;
51525;SDS011;37611;51.794;21.590;2023-07-31T14:24:32;5.80;;;1.60;;
51525;SDS011;37611;51.794;21.590;2023-07-31T14:28:44;3.90;;;1.70;;
51525;SDS011;37611;51.794;21.590;2023-07-31T14:53:50;3.90;;;2.10;;
51525;SDS011;37611;51.794;21.590;2023-07-31T14:57:52;2.80;;;2.00;;
51525;SDS011;37611;51.794;21.590;2023-07-31T15:01:55;3.10;;;1.60;;
51525;SDS011;37611;51.794;21.590;2023-07-31T15:05:56;2.80;;;1.60;;
51525;SDS011;37611;51.794;21.590;2023-07-31T15:09:59;4.20;;;2.20;;
51525;SDS011;37611;51.794;21.590;2023-07-31T15:19:30;3.80;;;1.80;;
51525;SDS011;37611;51.794;21.590;2023-07-31T15:23:36;4.70;;;1.80;;
51525;SDS011;37611;51.794;21.590;2023-07-31T15:27:39;2.50;;;1.60;;
51525;SDS011;37611;51.794;21.590;2023-07-31T15:31:44;4.70;;;2.00;;
51525;SDS011;37611;51.794;21.590;2023-07-31T15:35:47;4.90;;;2.00;;
51525;SDS011;37611;51.794;21.590;2023-07-31T15:39:49;6.20;;;2.00;;
51525;SDS011;37611;51.794;21.590;2023-07-31T15:43:51;10.50;;;1.90;;
51525;SDS011;37611;51.794;21.590;2023-07-31T15:47:53;3.10;;;1.80;;
51525;SDS011;37611;51.794;21.590;2023-07-31T15:51:54;4.80;;;1.70;;
51525;SDS011;37611;51.794;21.590;2023-07-31T15:55:57;3.40;;;1.50;;
51525;SDS011;37611;51.794;21.590;2023-07-31T15:59:59;3.70;;;1.50;;
51525;SDS011;37611;51.794;21.590;2023-07-31T16:04:00;5.40;;;1.80;;
51525;SDS011;37611;51.794;21.590;2023-07-31T16:08:02;3.60;;;2.00;;
51525;SDS011;37611;51.794;21.590;2023-07-31T16:12:05;6.30;;;1.70;;
51525;SDS011;37611;51.794;21.590;2023-07-31T16:16:08;2.30;;;1.60;;
51525;SDS011;37611;51.794;21.590;2023-07-31T16:20:10;4.10;;;1.50;;
51525;SDS011;37611;51.794;21.590;2023-07-31T16:24:12;7.80;;;2.10;;
51525;SDS011;37611;51.794;21.590;2023-07-31T16:28:15;3.80;;;2.00;;
51525;SDS011;37611;51.794;21.590;2023-07-31T16:32:17;5.90;;;1.80;;
51525;SDS011;37611;51.794;21.590;2023-07-31T16:36:19;2.70;;;1.60;;
51525;SDS011;37611;51.794;21.590;2023-07-31T16:40:23;2.70;;;1.60;;
51525;SDS011;37611;51.794;21.590;2023-07-31T16:44:24;3.90;;;1.60;;
51525;SDS011;37611;51.794;21.590;2023-07-31T16:48:26;4.60;;;1.90;;
51525;SDS011;37611;51.794;21.590;2023-07-31T16:52:28;3.20;;;2.00;;
51525;SDS011;37611;51.794;21.590;2023-07-31T16:56:32;5.70;;;2.30;;
51525;SDS011;37611;51.794;21.590;2023-07-31T17:00:33;5.70;;;2.70;;
51525;SDS011;37611;51.794;21.590;2023-07-31T17:04:35;6.10;;;3.00;;
51525;SDS011;37611;51.794;21.590;2023-07-31T17:08:37;5.60;;;2.50;;
51525;SDS011;37611;51.794;21.590;2023-07-31T17:12:38;6.50;;;2.80;;
51525;SDS011;37611;51.794;21.590;2023-07-31T17:16:40;5.60;;;2.60;;
51525;SDS011;37611;51.794;21.590;2023-07-31T17:20:42;5.80;;;2.80;;
51525;SDS011;37611;51.794;21.590;2023-07-31T17:24:45;4.90;;;2.70;;
51525;SDS011;37611;51.794;21.590;2023-07-31T17:28:48;6.20;;;2.50;;
51525;SDS011;37611;51.794;21.590;2023-07-31T17:32:51;6.10;;;2.40;;
51525;SDS011;37611;51.794;21.590;2023-07-31T17:36:53;5.40;;;2.50;;
51525;SDS011;37611;51.794;21.590;2023-07-31T17:40:55;4.00;;;2.30;;
51525;SDS011;37611;51.794;21.590;2023-07-31T17:44:57;4.40;;;2.70;;
51525;SDS011;37611;51.794;21.590;2023-07-31T17:48:59;5.60;;;3.40;;
51525;SDS011;37611;51.794;21.590;2023-07-31T17:53:00;5.60;;;3.20;;
51525;SDS011;37611;51.794;21.590;2023-07-31T17:57:02;8.70;;;3.50;;
51525;SDS011;37611;51.794;21.590;2023-07-31T18:01:05;6.50;;;3.90;;
51525;SDS011;37611;51.794;21.590;2023-07-31T18:05:07;11.50;;;3.20;;
51525;SDS011;37611;51.794;21.590;2023-07-31T18:09:09;5.70;;;3.10;;
51525;SDS011;37611;51.794;21.590;2023-07-31T18:13:12;5.70;;;3.10;;
51525;SDS011;37611;51.794;21.590;2023-07-31T18:17:14;6.50;;;3.30;;
51525;SDS011;37611;51.794;21.590;2023-07-31T18:21:17;6.30;;;3.20;;
51525;SDS011;37611;51.794;21.590;2023-07-31T18:25:19;6.80;;;3.30;;
51525;SDS011;37611;51.794;21.590;2023-07-31T18:29:20;6.40;;;3.30;;
51525;SDS011;37611;51.794;21.590;2023-07-31T18:33:22;10.40;;;6.50;;
51525;SDS011;37611;51.794;21.590;2023-07-31T18:37:24;9.40;;;5.40;;
51525;SDS011;37611;51.794;21.590;2023-07-31T18:41:26;10.90;;;7.80;;
51525;SDS011;37611;51.794;21.590;2023-07-31T18:45:28;9.70;;;6.60;;
51525;SDS011;37611;51.794;21.590;2023-07-31T18:49:29;11.30;;;6.30;;
51525;SDS011;37611;51.794;21.590;2023-07-31T18:53:32;9.70;;;6.10;;
51525;SDS011;37611;51.794;21.590;2023-07-31T18:57:33;12.90;;;8.20;;
51525;SDS011;37611;51.794;21.590;2023-07-31T19:01:35;11.80;;;7.10;;
51525;SDS011;37611;51.794;21.590;2023-07-31T19:05:40;11.40;;;7.70;;
51525;SDS011;37611;51.794;21.590;2023-07-31T19:09:42;6.80;;;4.70;;
51525;SDS011;37611;51.794;21.590;2023-07-31T19:13:52;12.00;;;4.20;;
51525;SDS011;37611;51.794;21.590;2023-07-31T19:18:01;5.30;;;2.90;;
51525;SDS011;37611;51.794;21.590;2023-07-31T19:22:05;5.70;;;3.30;;
51525;SDS011;37611;51.794;21.590;2023-07-31T19:26:09;4.50;;;3.00;;
51525;SDS011;37611;51.794;21.590;2023-07-31T19:30:14;5.20;;;2.60;;
51525;SDS011;37611;51.794;21.590;2023-07-31T19:34:20;7.70;;;3.40;;
51525;SDS011;37611;51.794;21.590;2023-07-31T19:43:39;6.40;;;3.30;;
51525;SDS011;37611;51.794;21.590;2023-07-31T19:58:27;5.90;;;2.80;;
51525;SDS011;37611;51.794;21.590;2023-07-31T20:02:29;5.20;;;3.00;;
51525;SDS011;37611;51.794;21.590;2023-07-31T20:06:42;6.30;;;3.00;;
51525;SDS011;37611;51.794;21.590;2023-07-31T20:10:56;4.20;;;3.00;;
51525;SDS011;37611;51.794;21.590;2023-07-31T20:15:03;7.30;;;3.70;;
51525;SDS011;37611;51.794;21.590;2023-07-31T20:19:07;5.50;;;3.90;;
51525;SDS011;37611;51.794;21.590;2023-07-31T20:23:09;6.90;;;4.00;;
51525;SDS011;37611;51.794;21.590;2023-07-31T20:31:26;5.20;;;3.30;;
51525;SDS011;37611;51.794;21.590;2023-07-31T20:35:28;6.20;;;2.90;;
51525;SDS011;37611;51.794;21.590;2023-07-31T20:44:12;4.70;;;3.10;;
51525;SDS011;37611;51.794;21.590;2023-07-31T21:03:48;9.50;;;5.10;;
51525;SDS011;37611;51.794;21.590;2023-07-31T22:03:24;7.20;;;3.60;;
51525;SDS011;37611;51.794;21.590;2023-07-31T22:07:29;7.10;;;3.60;;
51525;SDS011;37611;51.794;21.590;2023-07-31T23:53:40;10.00;;;4.00;;
51525;SDS011;37611;51.794;21.590;2023-07-31T23:58:08;8.40;;;3.80;;
